createdAt,value
2018-11-06T00:01:20.351Z,13.75
2018-11-06T00:06:23.828Z,14.60
2018-11-06T00:11:27.328Z,16.00
2018-11-06T00:16:30.854Z,14.25
2018-11-06T00:21:34.354Z,15.75
2018-11-06T00:26:37.864Z,16.60
2018-11-06T00:31:41.390Z,13.25
2018-11-06T00:36:44.968Z,14.40
2018-11-06T00:41:48.455Z,14.75
2018-11-06T00:46:51.988Z,13.80
2018-11-06T00:51:55.446Z,14.80
2018-11-06T00:56:58.966Z,14.40
2018-11-06T01:02:02.481Z,13.75
2018-11-06T01:07:05.973Z,15.00
2018-11-06T01:12:09.487Z,14.00
2018-11-06T01:17:19.713Z,14.00
2018-11-06T01:22:23.211Z,13.75
2018-11-06T01:27:26.871Z,14.00
2018-11-06T01:32:30.381Z,13.00
2018-11-06T01:37:33.871Z,14.80
2018-11-06T01:42:37.339Z,14.00
2018-11-06T01:47:41.202Z,13.60
2018-11-06T01:52:45.709Z,13.40
2018-11-06T01:57:49.215Z,13.80
2018-11-06T02:02:52.698Z,14.20
2018-11-06T02:07:56.175Z,13.00
2018-11-06T02:12:59.675Z,12.00
2018-11-06T02:18:03.206Z,13.60
2018-11-06T02:23:06.701Z,13.75
2018-11-06T02:28:10.191Z,11.60
2018-11-06T02:33:13.668Z,12.25
2018-11-06T02:38:17.260Z,11.20
2018-11-06T02:43:20.775Z,11.60
2018-11-06T02:48:24.233Z,13.80
2018-11-06T02:53:27.857Z,13.50
2018-11-06T02:58:31.408Z,11.75
2018-11-06T03:03:40.252Z,13.40
2018-11-06T03:08:43.756Z,12.25
2018-11-06T03:13:47.227Z,12.75
2018-11-06T03:18:50.686Z,11.60
2018-11-06T03:23:54.138Z,12.75
2018-11-06T03:28:57.645Z,12.00
2018-11-06T03:34:01.119Z,11.50
2018-11-06T03:39:07.080Z,11.25
2018-11-06T03:44:10.574Z,11.50
2018-11-06T03:49:14.026Z,12.00
2018-11-06T03:54:17.546Z,11.25
2018-11-06T03:59:21.173Z,12.80
2018-11-06T04:04:24.629Z,11.75
2018-11-06T04:09:28.114Z,11.60
2018-11-06T04:14:31.579Z,10.50
2018-11-06T04:19:35.114Z,11.80
2018-11-06T04:24:38.590Z,10.50
2018-11-06T04:29:42.062Z,12.20
2018-11-06T04:34:45.557Z,11.75
2018-11-06T04:39:49.051Z,10.20
2018-11-06T04:44:52.564Z,12.25
2018-11-06T04:49:56.086Z,12.00
2018-11-06T04:54:59.574Z,9.50
2018-11-06T05:00:03.287Z,11.80
2018-11-06T05:05:07.110Z,10.20
2018-11-06T05:10:12.378Z,10.80
2018-11-06T05:15:16.489Z,11.80
2018-11-06T05:20:19.978Z,12.20
2018-11-06T05:25:23.525Z,9.00
2018-11-06T05:30:26.964Z,11.50
2018-11-06T05:35:30.461Z,9.20
2018-11-06T05:40:45.381Z,10.60
2018-11-06T05:45:48.926Z,9.80
2018-11-06T05:50:52.451Z,10.20
2018-11-06T05:55:55.969Z,10.00
2018-11-06T06:00:59.878Z,10.00
2018-11-06T06:06:03.346Z,9.25
2018-11-06T06:11:07.171Z,10.20
2018-11-06T06:16:10.618Z,10.60
2018-11-06T06:21:14.088Z,11.00
2018-11-06T06:26:17.585Z,10.20
2018-11-06T06:31:21.109Z,10.40
2018-11-06T06:36:24.581Z,10.40
2018-11-06T06:41:28.195Z,10.25
2018-11-06T06:46:31.801Z,11.25
2018-11-06T06:51:35.218Z,9.00
2018-11-06T06:56:38.743Z,10.00
2018-11-06T07:01:42.288Z,10.25
2018-11-06T07:06:45.795Z,9.80
2018-11-06T07:11:49.266Z,9.00
2018-11-06T07:16:52.732Z,10.20
2018-11-06T07:21:56.206Z,12.00
2018-11-06T07:26:59.666Z,10.00
2018-11-06T07:32:03.135Z,11.50
2018-11-06T07:37:06.660Z,13.60
2018-11-06T07:42:10.150Z,13.50
2018-11-06T07:47:13.618Z,13.00
2018-11-06T07:52:17.078Z,12.40
2018-11-06T07:57:20.563Z,13.25
2018-11-06T08:02:24.050Z,13.75
2018-11-06T08:07:27.495Z,15.00
2018-11-06T08:12:31.006Z,12.40
2018-11-06T08:17:34.502Z,15.75
2018-11-06T08:22:38.448Z,14.40
2018-11-06T08:27:42.829Z,15.60
2018-11-06T08:32:46.527Z,15.50
2018-11-06T08:37:49.769Z,15.40
2018-11-06T08:42:53.258Z,16.75
2018-11-06T08:47:56.782Z,16.00
2018-11-06T08:53:00.321Z,14.25
2018-11-06T08:58:03.774Z,13.00
2018-11-06T09:03:07.248Z,15.50
2018-11-06T09:08:10.691Z,15.00
2018-11-06T09:13:14.137Z,15.00
2018-11-06T09:18:17.591Z,14.50
2018-11-06T09:23:21.111Z,13.75
2018-11-06T09:28:24.599Z,15.60
2018-11-06T09:33:28.158Z,14.80
2018-11-06T09:38:31.611Z,14.75
2018-11-06T09:43:35.227Z,15.50
2018-11-06T09:48:38.710Z,13.40
2018-11-06T09:53:42.140Z,13.75
2018-11-06T09:58:45.628Z,13.25
2018-11-06T10:03:49.110Z,13.75
2018-11-06T10:08:52.608Z,14.00
2018-11-06T10:13:56.148Z,14.40
2018-11-06T10:18:59.628Z,13.50
2018-11-06T10:24:03.091Z,13.20
2018-11-06T10:29:06.579Z,18.50
2018-11-06T10:34:10.067Z,16.80
2018-11-06T10:39:14.404Z,14.25
2018-11-06T10:44:17.908Z,18.00
2018-11-06T10:49:21.370Z,15.25
2018-11-06T10:54:24.834Z,15.60
2018-11-06T10:59:28.304Z,16.00
2018-11-06T11:04:32.295Z,16.50
2018-11-06T11:09:35.768Z,17.00
2018-11-06T11:14:39.238Z,16.00
2018-11-06T11:19:42.695Z,15.75
2018-11-06T11:24:46.199Z,14.80
2018-11-06T11:29:49.661Z,18.00
2018-11-06T11:34:53.129Z,21.20
2018-11-06T11:39:56.610Z,17.50
2018-11-06T11:45:00.109Z,16.20
2018-11-06T11:50:03.906Z,16.00
2018-11-06T11:55:07.946Z,15.60
2018-11-06T12:00:14.551Z,14.00
2018-11-06T12:05:17.968Z,13.60
2018-11-06T12:10:21.449Z,13.20
2018-11-06T12:15:24.943Z,12.00
2018-11-06T12:20:28.427Z,11.00
2018-11-06T12:25:32.102Z,11.00
2018-11-06T12:30:35.404Z,12.50
2018-11-06T12:35:38.861Z,11.40
2018-11-06T12:40:42.346Z,11.50
2018-11-06T12:45:46.024Z,11.75
2018-11-06T12:50:49.485Z,13.20
2018-11-06T12:55:52.970Z,11.00
2018-11-06T13:00:56.499Z,12.40
2018-11-06T13:05:59.990Z,12.60
2018-11-06T13:11:03.461Z,11.75
2018-11-06T13:16:06.963Z,13.80
2018-11-06T13:21:10.433Z,11.25
2018-11-06T13:26:13.981Z,12.60
2018-11-06T13:31:17.395Z,10.75
2018-11-06T13:36:27.097Z,11.60
2018-11-06T13:41:30.871Z,13.00
2018-11-06T13:46:34.631Z,13.25
2018-11-06T13:51:38.247Z,11.75
2018-11-06T13:56:41.986Z,12.00
2018-11-06T14:01:45.420Z,12.25
2018-11-06T14:06:48.964Z,11.80
2018-11-06T14:11:52.648Z,11.50
2018-11-06T14:16:56.125Z,12.00
2018-11-06T14:21:59.659Z,11.00
2018-11-06T14:27:03.494Z,10.80
2018-11-06T14:32:07.190Z,11.20
2018-11-06T14:37:10.688Z,14.20
2018-11-06T14:42:14.529Z,14.20
2018-11-06T14:47:17.954Z,13.60
2018-11-06T14:52:21.392Z,12.50
2018-11-06T14:57:24.945Z,11.40
2018-11-06T15:02:28.370Z,13.00
2018-11-06T15:07:31.854Z,12.40
2018-11-06T15:12:35.417Z,12.25
2018-11-06T15:17:39.205Z,12.20
2018-11-06T15:22:43.324Z,12.40
2018-11-06T15:27:46.782Z,13.80
2018-11-06T15:32:50.241Z,12.20
2018-11-06T15:37:53.844Z,13.00
2018-11-06T15:42:57.333Z,11.25
2018-11-06T15:48:00.959Z,12.00
2018-11-06T15:53:04.760Z,12.00
2018-11-06T15:58:08.406Z,12.40
2018-11-06T16:03:12.499Z,11.40
2018-11-06T16:08:18.720Z,13.00
2018-11-06T16:13:22.244Z,12.80
2018-11-06T16:18:26.167Z,11.00
2018-11-06T16:23:29.658Z,12.60
2018-11-06T16:28:33.552Z,13.00
2018-11-06T16:33:37.151Z,12.40
2018-11-06T16:38:41.930Z,11.75
2018-11-06T16:43:45.723Z,11.00
2018-11-06T16:48:49.256Z,12.80
2018-11-06T16:53:52.801Z,12.00
2018-11-06T16:58:56.264Z,11.75
2018-11-06T17:03:59.938Z,10.75
2018-11-06T17:09:03.666Z,10.00
2018-11-06T17:14:07.395Z,10.80
2018-11-06T17:19:10.966Z,11.60
2018-11-06T17:24:14.466Z,9.00
2018-11-06T17:29:17.934Z,9.00
2018-11-06T17:34:21.444Z,9.00
2018-11-06T17:39:24.984Z,10.50
2018-11-06T17:44:28.399Z,12.00
2018-11-06T17:49:31.944Z,9.20
2018-11-06T17:54:35.381Z,11.00
2018-11-06T17:59:38.839Z,10.75
2018-11-06T18:04:42.332Z,11.75
2018-11-06T18:09:45.762Z,10.25
2018-11-06T18:14:49.391Z,11.00
2018-11-06T18:19:52.925Z,10.50
2018-11-06T18:24:56.433Z,11.50
2018-11-06T18:29:59.910Z,9.60
2018-11-06T18:35:03.654Z,9.00
2018-11-06T18:40:09.281Z,10.40
2018-11-06T18:45:13.291Z,10.00
2018-11-06T18:50:17.728Z,11.00
2018-11-06T18:55:21.308Z,9.60
2018-11-06T19:00:25.081Z,10.00
2018-11-06T19:05:28.530Z,10.80
2018-11-06T19:10:31.997Z,10.40
2018-11-06T19:15:35.528Z,10.80
2018-11-06T19:20:39.062Z,9.50
2018-11-06T19:25:43.814Z,11.20
2018-11-06T19:30:47.372Z,10.00
2018-11-06T19:35:50.978Z,10.20
2018-11-06T19:40:54.426Z,10.00
2018-11-06T19:45:57.942Z,10.80
2018-11-06T19:51:01.981Z,9.75
2018-11-06T19:56:05.698Z,9.75
2018-11-06T20:01:10.867Z,14.00
2018-11-06T20:06:15.488Z,13.00
2018-11-06T20:11:19.158Z,13.00
2018-11-06T20:16:22.636Z,13.00
2018-11-06T20:21:26.385Z,12.50
2018-11-06T20:26:29.896Z,12.80
2018-11-06T20:31:33.531Z,12.00
2018-11-06T20:36:37.989Z,15.00
2018-11-06T20:41:41.448Z,12.50
2018-11-06T20:46:44.919Z,14.80
2018-11-06T20:51:48.470Z,16.25
2018-11-06T20:56:52.365Z,12.00
2018-11-06T21:01:56.179Z,12.80
2018-11-06T21:06:59.719Z,12.00
2018-11-06T21:12:03.759Z,12.00
2018-11-06T21:17:07.358Z,10.50
2018-11-06T21:22:11.815Z,12.80
2018-11-06T21:27:15.403Z,10.25
2018-11-06T21:32:18.971Z,11.40
2018-11-06T21:37:21.461Z,11.50
2018-11-06T21:42:25.026Z,11.20
2018-11-06T21:47:28.570Z,12.20
2018-11-06T21:52:32.194Z,12.40
2018-11-06T21:57:35.666Z,14.00
2018-11-06T22:02:39.116Z,13.25
2018-11-06T22:07:42.940Z,11.75
2018-11-06T22:12:46.911Z,10.00
2018-11-06T22:17:50.333Z,11.00
2018-11-06T22:22:53.796Z,12.40
2018-11-06T22:27:57.282Z,11.00
2018-11-06T22:33:00.865Z,10.00
2018-11-06T22:38:04.845Z,12.00
2018-11-06T22:43:08.330Z,9.25
2018-11-06T22:48:11.832Z,10.50
2018-11-06T22:53:15.373Z,10.00
2018-11-06T22:58:18.780Z,9.75
2018-11-06T23:03:22.296Z,9.00
2018-11-06T23:08:27.037Z,9.00
2018-11-06T23:13:30.543Z,10.50
2018-11-06T23:18:34.062Z,9.40
2018-11-06T23:23:37.699Z,10.00
2018-11-06T23:28:41.150Z,9.40
2018-11-06T23:33:44.963Z,11.00
2018-11-06T23:38:48.559Z,10.50
2018-11-06T23:43:52.079Z,9.20
2018-11-06T23:48:55.693Z,9.50
2018-11-06T23:53:58.292Z,10.00
2018-11-06T23:59:00.851Z,9.80
